Latest Weather Observations for Warra

IDT60801

Issued at 3:05 am EST Thursday 31 July 2014 (issued every 30 minutes, with the page automatically refreshed every 10 minutes)

About weather observations | Map of weather stations | Latest weather observations for TAS | Other Formats
Station Details ID: 097024 Name: WARRA Lat: -43.06 Lon: 146.70 Height: 495.0 m
Data from the previous 72 hours. | See also: Recent months at Warra
Date/Time
EST
Temp
°C
App
Temp
°C
Dew
Point
Rel
Hum
%
Delta-T
°C
Wind Press
QNH
hPa
Press
MSL
hPa
Rain
since 9 am
mm
Dir
 
Spd
km/h
Gust
km/h
Spd
kts
Gust
kts
31/03:00am 6.0 3.0 5.9 99 0.0 SW 11 20 6 11 - - 58.2
31/02:30am 6.4 0.9 6.0 97 0.2 WNW 24 44 13 24 - - 56.2
31/02:00am 6.5 1.9 5.8 95 0.3 W 19 35 10 19 - - 54.6
31/01:30am 7.1 1.4 6.8 98 0.1 W 26 44 14 24 - - 51.8
31/01:00am 7.7 2.1 7.3 97 0.2 NW 26 48 14 26 - - 47.0
31/12:30am 8.2 2.4 7.8 97 0.2 WNW 28 63 15 34 - - 43.0
31/12:24am 8.0 2.2 7.9 99 0.0 NW 28 48 15 26 - - 42.4
31/12:00am 7.9 3.5 7.5 97 0.2 NW 20 48 11 26 - - 40.0
 
Date/Time
EST
Temp
°C
App
Temp
°C
Dew
Point
Rel
Hum
%
Delta-T
°C
Wind Press
QNH
hPa
Press
MSL
hPa
Rain
since 9 am
mm
Dir
 
Spd
km/h
Gust
km/h
Spd
kts
Gust
kts
30/11:31pm 7.9 0.0 7.8 99 0.0 NW 39 59 21 32 - - 38.2
30/11:30pm 7.7 3.3 7.6 99 0.0 NNW 20 59 11 32 - - 38.2
30/11:00pm 7.8 2.7 7.5 98 0.1 NNW 24 43 13 23 - - 36.6
30/10:30pm 7.8 2.6 7.1 95 0.3 NW 24 46 13 25 - - 35.0
30/10:00pm 7.8 0.9 7.2 96 0.3 NW 33 59 18 32 - - 34.0
30/09:55pm 7.7 1.8 7.3 97 0.2 NW 28 59 15 32 - - 33.8
30/09:30pm 7.9 2.8 7.8 99 0.0 NNW 24 46 13 25 - - 32.8
30/09:27pm 7.9 1.7 7.8 99 0.0 NW 30 48 16 26 - - 32.8
30/09:19pm 8.0 0.1 7.7 98 0.1 NW 39 48 21 26 - - 32.6
30/09:00pm 8.1 4.7 7.7 97 0.2 N 15 35 8 19 - - 30.6
30/08:30pm 8.3 2.6 8.2 99 0.0 WNW 28 46 15 25 - - 29.8
30/08:23pm 8.4 2.7 8.3 99 0.0 WNW 28 46 15 25 - - 29.4
30/08:00pm 7.9 4.2 7.8 99 0.0 NNW 17 35 9 19 - - 28.0
30/07:30pm 7.4 4.7 7.3 99 0.0 NNW 11 15 6 8 - - 26.6
30/07:00pm 8.1 3.2 6.7 91 0.7 WNW 22 44 12 24 - - 25.0
30/06:30pm 7.8 2.3 6.1 89 0.8 NW 24 48 13 26 - - 23.6
30/06:00pm 8.1 1.7 5.2 82 1.3 WNW 28 50 15 27 - - 22.4
30/05:30pm 8.6 1.9 5.5 81 1.4 NW 30 72 16 39 - - 22.2
30/05:00pm 8.7 1.6 6.5 86 1.0 WNW 33 61 18 33 - - 21.6
30/04:48pm 8.8 2.7 6.4 85 1.1 NW 28 56 15 30 - - 21.6
30/04:30pm 8.7 2.7 7.0 89 0.8 WNW 28 44 15 24 - - 21.6
30/04:06pm 8.5 2.6 7.4 93 0.5 WNW 28 48 15 26 - - 21.4
30/04:00pm 8.5 3.4 7.6 94 0.4 WNW 24 44 13 24 - - 21.0
30/03:30pm 8.5 1.9 7.7 95 0.4 WNW 32 61 17 33 - - 18.4
30/03:27pm 8.6 2.8 7.8 95 0.4 WNW 28 61 15 33 - - 18.4
30/03:00pm 7.8 5.2 7.7 99 0.0 N 11 24 6 13 - - 17.0
30/02:30pm 7.5 4.8 7.4 99 0.0 N 11 22 6 12 - - 15.2
30/02:00pm 7.6 4.2 7.5 99 0.0 NW 15 26 8 14 - - 13.0
30/01:30pm 7.5 4.3 6.9 96 0.3 NW 13 26 7 14 - - 11.6
30/01:00pm 7.3 0.3 6.1 92 0.6 WNW 32 67 17 36 - - 10.2
30/12:30pm 8.0 1.5 6.6 91 0.7 WNW 30 57 16 31 - - 6.8
30/12:11pm 8.1 2.0 6.7 91 0.7 WNW 28 56 15 30 - - 5.8
30/12:00pm 8.1 3.6 7.0 93 0.5 NW 20 41 11 22 - - 5.6
30/11:30am 8.0 1.1 6.6 91 0.7 NW 32 56 17 30 - - 4.4
30/11:00am 7.5 1.3 6.3 92 0.6 NW 28 46 15 25 - - 3.0
30/10:30am 7.5 -0.1 5.6 88 0.9 NW 35 70 19 38 - - 2.6
30/10:28am 7.6 0.0 5.7 88 0.9 NW 35 70 19 38 - - 2.6
30/10:05am 7.0 0.7 5.6 91 0.6 NW 28 50 15 27 - - 1.8
30/10:00am 7.0 1.5 5.8 92 0.6 NW 24 43 13 23 - - 1.6
30/09:30am 7.3 -0.9 4.9 85 1.1 NW 37 65 20 35 - - 0.4
30/09:00am 6.7 -0.1 4.9 88 0.8 WNW 30 52 16 28 - - 37.2
30/08:30am 5.8 0.8 4.8 93 0.4 NW 20 39 11 21 - - 36.8
30/08:19am 5.8 -0.8 4.3 90 0.7 WNW 28 61 15 33 - - 36.4
30/08:00am 5.1 2.0 3.8 91 0.6 NNW 9 11 5 6 - - 36.0
30/07:45am 5.8 -0.9 3.5 85 1.0 WNW 28 50 15 27 - - 35.4
30/07:30am 4.7 -0.1 2.7 87 0.8 N 17 33 9 18 - - 35.2
30/07:00am 5.3 1.1 1.4 76 1.6 N 13 20 7 11 - - 35.0
30/06:30am 5.4 -0.3 -0.4 66 2.3 NW 19 43 10 23 - - 35.0
30/06:00am 5.5 -0.4 -0.5 65 2.3 NW 20 33 11 18 - - 35.0
30/05:36am 5.3 -2.0 -0.1 68 2.1 NW 28 50 15 27 - - 35.0
30/05:30am 5.2 -1.8 -0.2 68 2.1 NW 26 54 14 29 - - 35.0
30/05:00am 5.2 -2.9 -0.6 66 2.3 NW 32 57 17 31 - - 35.0
30/04:44am 5.3 -2.0 -0.3 67 2.2 WNW 28 46 15 25 - - 35.0
30/04:30am 5.2 -1.4 -0.2 68 2.1 WNW 24 46 13 25 - - 35.0
30/04:00am 5.1 -0.6 0.3 71 1.9 WNW 20 56 11 30 - - 35.0
30/03:30am 4.9 -0.9 0.1 71 1.9 WNW 20 50 11 27 - - 35.0
30/03:08am 4.8 -2.5 -0.2 70 2.0 WNW 28 54 15 29 - - 35.0
30/03:00am 4.6 -2.0 -0.4 70 1.9 WNW 24 56 13 30 - - 35.0
30/02:30am 4.5 -3.5 0.3 74 1.7 WNW 32 72 17 39 - - 35.0
30/02:28am 4.3 -3.3 0.5 76 1.5 WNW 30 72 16 39 - - 35.0
30/02:00am 3.7 -4.4 1.3 84 1.0 WNW 33 52 18 28 - - 35.0
30/01:32am 3.7 -4.4 1.3 84 1.0 W 33 74 18 40 - - 34.0
30/01:30am 3.9 -3.6 0.9 81 1.2 W 30 50 16 27 - - 33.8
30/01:14am 3.5 -3.6 1.2 85 0.9 W 28 52 15 28 - - 33.6
30/01:00am 3.3 -1.8 0.7 83 1.0 W 17 26 9 14 - - 33.0
30/12:30am 3.8 -5.3 1.7 86 0.9 W 39 63 21 34 - - 32.4
30/12:27am 3.7 -4.3 1.9 88 0.7 W 33 59 18 32 - - 32.2
30/12:24am 3.8 -8.5 1.8 87 0.8 W 56 87 30 47 - - 32.2
30/12:22am 3.7 -3.7 1.9 88 0.7 W 30 48 16 26 - - 32.0
30/12:00am 4.5 -0.9 1.2 79 1.3 WNW 19 32 10 17 - - 30.4
 
Date/Time
EST
Temp
°C
App
Temp
°C
Dew
Point
Rel
Hum
%
Delta-T
°C
Wind Press
QNH
hPa
Press
MSL
hPa
Rain
since 9 am
mm
Dir
 
Spd
km/h
Gust
km/h
Spd
kts
Gust
kts
29/11:30pm 4.0 -7.3 1.5 84 1.0 W 50 109 27 59 - - 30.4
29/11:00pm 3.9 -4.7 0.2 77 1.4 WNW 35 83 19 45 - - 29.4
29/10:30pm 6.5 -4.9 0.8 67 2.3 WNW 50 104 27 56 - - 27.8
29/10:11pm 7.1 -4.3 0.5 63 2.7 WNW 50 98 27 53 - - 27.8
29/10:00pm 6.9 -3.4 0.6 64 2.6 WNW 44 80 24 43 - - 27.8
29/09:55pm 6.3 -2.5 1.4 71 2.0 WNW 37 65 20 35 - - 27.8
29/09:48pm 7.0 -0.2 0.9 65 2.5 NW 28 46 15 25 - - 27.8
29/09:45pm 7.1 0.7 0.8 64 2.6 WSW 24 32 13 17 - - 27.8
29/09:30pm 7.3 -3.7 0.7 63 2.7 WNW 48 83 26 45 - - 27.8
29/09:00pm 7.3 -4.5 0.5 62 2.8 WNW 52 95 28 51 - - 27.8
29/08:30pm 6.5 -4.3 2.0 73 1.9 WNW 48 91 26 49 - - 27.8
29/08:16pm 5.9 -4.8 2.5 79 1.4 WNW 48 119 26 64 - - 27.8
29/08:04pm 5.8 -6.4 2.8 81 1.3 WNW 56 93 30 50 - - 27.8
29/08:00pm 5.4 -2.4 3.1 85 1.0 W 33 69 18 37 - - 27.6
29/07:30pm 5.4 -4.0 2.4 81 1.3 WNW 41 74 22 40 - - 26.6
29/07:00pm 6.5 -3.3 3.3 80 1.4 WNW 44 98 24 53 - - 26.2
29/06:30pm 6.5 -4.4 3.8 83 1.2 WNW 50 85 27 46 - - 24.8
29/06:00pm 6.3 -3.3 3.5 82 1.2 WNW 43 70 23 38 - - 24.0
29/05:38pm 5.3 -1.7 4.0 91 0.6 WNW 30 80 16 43 - - 24.0
29/05:30pm 5.0 0.1 4.0 93 0.4 W 19 37 10 20 - - 23.6
29/05:00pm 6.0 -0.5 4.6 91 0.6 W 28 61 15 33 - - 20.0
29/04:30pm 7.5 -0.4 6.1 91 0.7 WNW 37 61 20 33 - - 16.4
29/04:00pm 8.6 0.4 6.7 88 0.9 WNW 39 74 21 40 - - 13.8
29/03:39pm 8.6 2.8 7.8 95 0.4 NW 28 63 15 34 - - 13.4
29/03:30pm 8.1 3.5 8.0 99 0.0 NW 22 39 12 21 - - 13.2
29/03:00pm 7.5 3.7 7.5 100 0.0 NW 17 35 9 19 - - 12.2
29/02:30pm 6.6 3.3 6.6 100 0.0 NNW 13 20 7 11 - - 11.6
29/02:00pm 6.2 2.1 6.1 99 0.0 NNW 17 32 9 17 - - 10.6
29/01:30pm 6.3 1.5 5.4 94 0.4 NW 20 39 11 21 - - 8.0
29/01:00pm 5.5 2.3 5.2 98 0.1 N 11 20 6 11 - - 7.4
29/12:30pm 5.7 0.9 4.7 93 0.4 WNW 19 41 10 22 - - 5.0
29/12:00pm 5.7 -0.9 4.3 91 0.6 NW 28 48 15 26 - - 3.8
29/11:31am 5.4 -1.3 3.9 90 0.7 NNW 28 46 15 25 - - 2.6
29/11:30am 5.4 -1.6 4.1 91 0.6 NNW 30 46 16 25 - - 2.6
29/11:00am 6.1 -0.9 3.9 86 1.0 WNW 30 48 16 26 - - 1.0
29/10:30am 7.3 -0.5 2.8 73 1.9 WNW 33 61 18 33 - - 0.2
29/10:20am 7.8 1.1 3.5 74 1.9 NW 28 46 15 25 - - 0.2
29/10:00am 7.3 0.9 5.3 87 0.9 NW 28 44 15 24 - - 0.2
29/09:30am 8.1 1.1 4.1 76 1.8 NW 30 48 16 26 - - 0.0
29/09:00am 8.3 1.0 4.5 77 1.7 WNW 32 54 17 29 - - 29.0
29/08:30am 8.2 2.2 7.0 92 0.6 NW 28 52 15 28 - - 28.8
29/08:07am 8.6 2.8 7.8 95 0.4 NW 28 56 15 30 - - 27.8
29/08:00am 8.0 2.2 7.9 99 0.0 NW 28 41 15 22 - - 27.8
29/07:30am 7.8 3.7 7.7 99 0.0 NNW 19 35 10 19 - - 27.2
29/07:00am 8.3 3.3 8.0 98 0.1 NW 24 43 13 23 - - 26.4
29/06:30am 7.5 3.3 7.5 100 0.0 NNW 19 35 10 19 - - 25.2
29/06:00am 7.5 2.7 7.5 100 0.0 NNW 22 35 12 19 - - 20.8
29/05:30am 7.2 2.9 7.2 100 0.0 NNW 19 33 10 18 - - 18.6
29/05:00am 7.1 2.8 7.0 99 0.0 NNW 19 30 10 16 - - 17.8
29/04:30am 7.3 3.0 7.2 99 0.0 NNW 19 37 10 20 - - 17.4
29/04:00am 7.3 2.9 7.2 99 0.0 NW 20 35 11 19 - - 17.2
29/03:30am 7.4 2.1 7.0 97 0.2 NW 24 41 13 22 - - 16.6
29/03:01am 7.4 1.0 6.8 96 0.3 NW 30 48 16 26 - - 15.2
29/03:00am 7.4 0.6 6.8 96 0.3 NW 32 48 17 26 - - 15.0
29/02:30am 7.4 0.5 6.5 94 0.4 NW 32 50 17 27 - - 14.0
29/02:00am 7.0 -0.1 6.3 95 0.3 NW 33 56 18 30 - - 13.8
29/01:30am 7.0 -0.4 6.7 98 0.1 NW 35 54 19 29 - - 13.0
29/01:24am 6.9 0.0 6.6 98 0.1 NW 32 50 17 27 - - 12.8
29/01:00am 6.7 1.4 6.6 99 0.0 NW 24 50 13 27 - - 12.0
29/12:57am 6.7 0.6 6.4 98 0.1 NW 28 52 15 28 - - 12.0
29/12:30am 6.4 2.2 5.8 96 0.3 NW 17 24 9 13 - - 11.6
29/12:00am 6.5 0.6 5.9 96 0.3 NNW 26 43 14 23 - - 10.0
 
Date/Time
EST
Temp
°C
App
Temp
°C
Dew
Point
Rel
Hum
%
Delta-T
°C
Wind Press
QNH
hPa
Press
MSL
hPa
Rain
since 9 am
mm
Dir
 
Spd
km/h
Gust
km/h
Spd
kts
Gust
kts
28/11:37pm 6.9 0.5 5.2 89 0.8 NW 28 46 15 25 - - 8.6
28/11:30pm 7.1 0.0 5.3 88 0.8 NW 32 43 17 23 - - 8.4
28/11:00pm 7.6 0.1 4.2 79 1.5 NW 33 54 18 29 - - 7.8
28/10:30pm 7.5 0.3 4.8 83 1.2 NW 32 54 17 29 - - 7.8
28/10:00pm 7.3 -0.1 4.8 84 1.1 WNW 33 65 18 35 - - 7.8
28/09:30pm 7.1 0.8 5.9 92 0.6 WNW 28 50 15 27 - - 7.8
28/09:27pm 7.1 0.8 5.7 91 0.6 WNW 28 46 15 25 - - 7.8
28/09:00pm 6.8 2.1 5.9 94 0.4 WNW 20 32 11 17 - - 7.8
28/08:30pm 6.8 2.6 5.6 92 0.6 WNW 17 32 9 17 - - 7.6
28/08:00pm 7.0 2.4 6.4 96 0.3 NW 20 32 11 17 - - 7.0
28/07:30pm 6.6 2.0 6.3 98 0.1 NW 20 35 11 19 - - 7.0
28/07:00pm 6.2 2.4 5.8 97 0.2 NNW 15 32 8 17 - - 6.8
28/06:30pm 6.5 2.7 5.6 94 0.4 WNW 15 28 8 15 - - 5.6
28/06:00pm 6.6 2.3 5.4 92 0.5 NW 17 28 9 15 - - 3.2
28/05:30pm 6.9 2.9 4.9 87 0.9 NW 15 33 8 18 - - 1.0
28/05:00pm 7.2 1.5 4.7 84 1.1 NW 24 43 13 23 - - 1.0
28/04:31pm 7.0 0.6 5.0 87 0.9 NW 28 46 15 25 - - 1.0
28/04:30pm 7.0 0.2 5.0 87 0.9 NW 30 46 16 25 - - 1.0
28/04:03pm 6.7 0.2 4.5 86 1.0 NW 28 46 15 25 - - 0.8
28/04:00pm 6.8 0.3 4.6 86 1.0 NW 28 44 15 24 - - 0.8
28/03:47pm 7.7 1.1 4.3 79 1.5 NW 28 50 15 27 - - 0.4
28/03:30pm 7.6 1.4 4.4 80 1.4 NW 26 46 14 25 - - 0.4
28/03:00pm 8.3 1.7 4.3 76 1.8 NW 28 54 15 29 - - 0.4
28/02:55pm 8.5 1.9 4.1 74 2.0 NW 28 48 15 26 - - 0.4
28/02:30pm 8.6 3.2 4.6 76 1.8 NW 22 43 12 23 - - 0.4
28/02:04pm 9.9 3.1 3.2 63 3.0 WNW 28 54 15 29 - - 0.4
28/02:00pm 10.3 4.4 3.8 64 2.9 WNW 24 54 13 29 - - 0.4
28/01:38pm 10.0 3.2 3.1 62 3.1 WNW 28 48 15 26 - - 0.4
28/01:30pm 10.1 4.1 3.4 63 3.0 WNW 24 43 13 23 - - 0.4
28/01:00pm 10.9 6.0 4.1 63 3.1 WNW 19 35 10 19 - - 0.4
28/12:30pm 10.4 5.2 3.7 63 3.0 WNW 20 39 11 21 - - 0.4
28/12:00pm 11.0 5.9 3.3 59 3.5 WNW 19 41 10 22 - - 0.4
28/11:30am 10.4 4.3 3.0 60 3.3 W 24 41 13 22 - - 0.4
28/11:00am 9.9 3.9 3.4 64 2.9 WNW 24 44 13 24 - - 0.4
28/10:30am 9.5 3.8 4.9 73 2.1 W 24 50 13 27 - - 0.4
28/10:00am 8.2 0.6 6.0 86 1.0 W 35 54 19 29 - - 0.4
28/09:30am 7.8 4.4 7.5 98 0.1 WNW 15 28 8 15 - - 0.4
28/09:00am 7.4 2.8 6.7 95 0.3 WNW 20 35 11 19 - - 7.6
28/08:30am 7.6 3.9 6.4 92 0.6 WNW 15 32 8 17 - - 7.2
28/08:00am 7.5 3.8 6.3 92 0.6 NW 15 28 8 15 - - 6.6
28/07:30am 7.9 3.2 5.2 83 1.2 WNW 19 41 10 22 - - 5.8
28/07:00am 8.1 3.7 4.9 80 1.5 WNW 17 32 9 17 - - 5.8
28/06:30am 8.4 3.7 5.9 84 1.2 WNW 20 33 11 18 - - 5.8
28/06:00am 8.5 3.2 6.6 88 0.9 WNW 24 37 13 20 - - 5.8
28/05:30am 8.8 3.9 6.9 88 0.9 WNW 22 44 12 24 - - 5.6
28/05:00am 8.8 3.4 7.9 94 0.4 WNW 26 61 14 33 - - 4.4
28/04:56am 9.0 3.2 7.9 93 0.5 WNW 28 61 15 33 - - 4.0
28/04:30am 9.2 5.1 8.0 92 0.6 WNW 19 33 10 18 - - 2.2
28/04:00am 8.9 4.8 8.0 94 0.4 NW 19 32 10 17 - - 1.8
28/03:30am 8.9 4.6 7.8 93 0.5 NW 20 37 11 20 - - 1.2

Other Formats:

Comma delimited format used in spreadsheet applications
http://www.bom.gov.au/fwo/IDT60801/IDT60801.95962.axf

JavaScript Object Notation format (JSON) in row-major order
http://www.bom.gov.au/fwo/IDT60801/IDT60801.95962.json